createdAt,value
2019-02-14T00:01:02.195Z,10.25
2019-02-14T00:03:32.305Z,9.35
2019-02-14T00:06:02.512Z,12.68
2019-02-14T00:08:32.602Z,12.33
2019-02-14T00:11:02.812Z,6.42
2019-02-14T00:13:33.047Z,9.13
2019-02-14T00:16:03.322Z,8.05
2019-02-14T00:18:33.463Z,9.78
2019-02-14T00:21:04.046Z,10.08
2019-02-14T00:26:20.882Z,11.35
2019-02-14T00:28:51.831Z,8.60
2019-02-14T00:31:21.999Z,11.70
2019-02-14T00:33:52.120Z,9.05
2019-02-14T00:36:22.217Z,6.50
2019-02-14T00:38:52.350Z,9.00
2019-02-14T00:41:22.512Z,11.63
2019-02-14T00:43:52.727Z,7.92
2019-02-14T00:46:23.130Z,10.55
2019-02-14T00:48:53.331Z,11.40
2019-02-14T00:51:23.553Z,11.83
2019-02-14T00:53:54.997Z,12.90
2019-02-14T00:56:25.412Z,8.08
2019-02-14T00:58:56.859Z,11.78
2019-02-14T01:01:26.975Z,9.08
2019-02-14T01:03:57.158Z,8.53
2019-02-14T01:06:27.308Z,11.20
2019-02-14T01:08:57.619Z,8.88
2019-02-14T01:11:28.219Z,9.28
2019-02-14T01:13:59.363Z,6.62
2019-02-14T01:16:33.899Z,9.70
2019-02-14T01:19:04.065Z,10.15
2019-02-14T01:21:34.194Z,10.72
2019-02-14T01:24:05.576Z,10.45
2019-02-14T01:26:35.780Z,6.83
2019-02-14T01:29:06.308Z,9.75
2019-02-14T01:31:37.615Z,8.43
2019-02-14T01:34:07.762Z,12.90
2019-02-14T01:36:37.953Z,20.12
2019-02-14T01:39:09.806Z,14.90
2019-02-14T01:41:39.976Z,13.60
2019-02-14T01:44:10.082Z,13.65
2019-02-14T01:46:40.203Z,12.25
2019-02-14T01:49:11.581Z,9.25
2019-02-14T01:51:41.837Z,9.18
2019-02-14T01:54:12.337Z,9.13
2019-02-14T01:56:42.450Z,8.55
2019-02-14T01:59:12.690Z,15.35
2019-02-14T02:01:42.825Z,8.20
2019-02-14T02:04:12.907Z,8.75
2019-02-14T02:06:43.014Z,10.58
2019-02-14T02:09:13.179Z,9.00
2019-02-14T02:11:43.315Z,11.18
2019-02-14T02:14:14.434Z,11.73
2019-02-14T02:16:44.558Z,10.53
2019-02-14T02:19:14.695Z,10.08
2019-02-14T02:21:46.958Z,7.30
2019-02-14T02:24:17.142Z,7.30
2019-02-14T02:26:47.310Z,10.85
2019-02-14T02:29:17.471Z,6.97
2019-02-14T02:31:47.624Z,13.72
2019-02-14T02:34:17.851Z,11.22
2019-02-14T02:36:48.301Z,13.35
2019-02-14T02:39:18.423Z,12.25
2019-02-14T02:41:48.601Z,9.08
2019-02-14T02:44:19.094Z,11.40
2019-02-14T02:46:49.259Z,9.28
2019-02-14T02:49:19.669Z,9.88
2019-02-14T02:51:49.793Z,9.20
2019-02-14T02:54:21.268Z,9.95
2019-02-14T02:56:51.627Z,10.88
2019-02-14T02:59:22.028Z,11.75
2019-02-14T03:01:52.149Z,7.17
2019-02-14T03:04:23.186Z,12.88
2019-02-14T03:06:54.562Z,14.85
2019-02-14T03:09:26.404Z,11.08
2019-02-14T03:11:57.382Z,9.40
2019-02-14T03:14:27.550Z,7.08
2019-02-14T03:16:57.653Z,9.28
2019-02-14T03:19:27.786Z,13.00
2019-02-14T03:21:58.262Z,10.78
2019-02-14T03:24:28.439Z,10.08
2019-02-14T03:26:58.612Z,8.75
2019-02-14T03:29:28.771Z,9.53
2019-02-14T03:31:58.905Z,9.25
2019-02-14T03:34:29.311Z,8.93
2019-02-14T03:36:59.447Z,9.25
2019-02-14T03:39:29.570Z,7.90
2019-02-14T03:41:59.693Z,6.75
2019-02-14T03:44:29.811Z,11.08
2019-02-14T03:47:02.163Z,10.58
2019-02-14T03:49:33.145Z,12.43
2019-02-14T03:52:03.274Z,9.85
2019-02-14T03:54:33.363Z,10.85
2019-02-14T03:57:03.743Z,12.65
2019-02-14T03:59:33.902Z,9.18
2019-02-14T04:02:04.059Z,10.48
2019-02-14T04:04:34.242Z,6.35
2019-02-14T04:07:04.427Z,8.80
2019-02-14T04:09:36.193Z,13.15
2019-02-14T04:12:06.622Z,7.78
2019-02-14T04:14:36.751Z,9.18
2019-02-14T04:17:07.091Z,14.75
2019-02-14T04:19:37.199Z,10.75
2019-02-14T04:22:07.470Z,13.58
2019-02-14T04:24:37.577Z,10.80
2019-02-14T04:27:08.010Z,11.43
2019-02-14T04:29:38.209Z,7.78
2019-02-14T04:32:08.647Z,11.63
2019-02-14T04:34:38.981Z,10.28
2019-02-14T04:37:12.096Z,9.48
2019-02-14T04:39:42.257Z,11.60
2019-02-14T04:42:32.533Z,8.98
2019-02-14T04:45:03.825Z,9.48
2019-02-14T04:47:33.977Z,11.88
2019-02-14T04:50:04.189Z,11.18
2019-02-14T04:52:34.338Z,7.83
2019-02-14T04:55:05.008Z,12.15
2019-02-14T04:57:37.276Z,8.50
2019-02-14T05:00:08.219Z,12.05
2019-02-14T05:02:38.670Z,10.55
2019-02-14T05:05:08.994Z,11.95
2019-02-14T05:07:40.211Z,13.10
2019-02-14T05:10:12.181Z,10.70
2019-02-14T05:12:43.756Z,9.55
2019-02-14T05:15:13.915Z,11.35
2019-02-14T05:17:45.144Z,12.33
2019-02-14T05:20:15.317Z,10.70
2019-02-14T05:22:46.715Z,12.20
2019-02-14T05:25:16.978Z,12.00
2019-02-14T05:27:50.062Z,9.73
2019-02-14T05:30:20.215Z,11.45
2019-02-14T05:32:50.444Z,9.80
2019-02-14T05:35:21.002Z,8.95
2019-02-14T05:37:51.145Z,14.38
2019-02-14T05:40:21.287Z,10.40
2019-02-14T05:42:51.406Z,10.00
2019-02-14T05:45:24.013Z,10.30
2019-02-14T05:47:54.133Z,10.80
2019-02-14T05:50:24.283Z,9.10
2019-02-14T05:52:54.428Z,13.62
2019-02-14T05:55:24.566Z,13.20
2019-02-14T05:57:54.718Z,12.78
2019-02-14T06:00:24.896Z,12.18
2019-02-14T06:02:55.374Z,12.50
2019-02-14T06:05:25.768Z,15.25
2019-02-14T06:07:55.878Z,11.00
2019-02-14T06:10:26.032Z,14.60
2019-02-14T06:12:56.199Z,11.57
2019-02-14T06:15:26.308Z,13.05
2019-02-14T06:17:56.406Z,11.60
2019-02-14T06:20:27.120Z,13.38
2019-02-14T06:23:02.053Z,13.83
2019-02-14T06:25:32.174Z,9.50
2019-02-14T06:28:02.307Z,13.28
2019-02-14T06:30:33.549Z,13.98
2019-02-14T06:33:03.673Z,11.57
2019-02-14T06:35:33.847Z,10.08
2019-02-14T06:38:03.973Z,11.88
2019-02-14T06:40:34.117Z,8.73
2019-02-14T06:43:04.305Z,13.98
2019-02-14T06:45:37.275Z,17.70
2019-02-14T06:48:07.418Z,26.70
2019-02-14T06:50:37.546Z,22.30
2019-02-14T06:53:08.076Z,20.37
2019-02-14T06:55:41.635Z,26.00
2019-02-14T06:58:12.864Z,18.82
2019-02-14T07:00:45.778Z,29.72
2019-02-14T07:03:16.018Z,27.77
2019-02-14T07:05:46.143Z,24.57
2019-02-14T07:08:20.295Z,25.17
2019-02-14T07:10:50.425Z,18.12
2019-02-14T07:13:20.606Z,13.72
2019-02-14T07:15:51.563Z,13.05
2019-02-14T07:18:21.715Z,14.18
2019-02-14T07:20:52.347Z,13.90
2019-02-14T07:23:22.483Z,10.50
2019-02-14T07:25:52.836Z,17.87
2019-02-14T07:28:22.973Z,15.65
2019-02-14T07:30:53.128Z,16.73
2019-02-14T07:33:23.256Z,19.62
2019-02-14T07:35:53.393Z,19.17
2019-02-14T07:38:23.547Z,16.23
2019-02-14T07:40:53.680Z,12.85
2019-02-14T07:43:23.897Z,18.05
2019-02-14T07:45:54.065Z,19.27
2019-02-14T07:48:24.463Z,23.45
2019-02-14T07:50:54.606Z,19.42
2019-02-14T07:53:24.729Z,25.62
2019-02-14T07:55:54.948Z,25.00
2019-02-14T07:58:25.052Z,25.27
2019-02-14T08:00:55.255Z,24.63
2019-02-14T08:03:25.402Z,19.82
2019-02-14T08:05:55.769Z,19.57
2019-02-14T08:08:25.889Z,22.40
2019-02-14T08:10:56.123Z,14.95
2019-02-14T08:13:26.221Z,18.77
2019-02-14T08:15:56.450Z,18.23
2019-02-14T08:18:26.569Z,14.47
2019-02-14T08:20:57.648Z,14.70
2019-02-14T08:23:27.802Z,15.25
2019-02-14T08:25:59.406Z,24.23
2019-02-14T08:28:29.939Z,16.37
2019-02-14T08:31:00.581Z,12.30
2019-02-14T08:33:30.779Z,14.03
2019-02-14T08:36:00.928Z,15.88
2019-02-14T08:38:31.085Z,14.55
2019-02-14T08:41:01.266Z,14.00
2019-02-14T08:43:31.395Z,15.00
2019-02-14T08:46:02.243Z,15.45
2019-02-14T08:48:32.872Z,17.50
2019-02-14T08:51:04.839Z,12.10
2019-02-14T08:53:35.132Z,11.95
2019-02-14T08:56:05.231Z,11.80
2019-02-14T08:58:35.688Z,15.63
2019-02-14T09:01:05.780Z,17.92
2019-02-14T09:03:35.900Z,20.70
2019-02-14T09:06:06.219Z,19.57
2019-02-14T09:08:36.338Z,21.90
2019-02-14T09:11:06.495Z,17.17
2019-02-14T09:13:36.674Z,17.48
2019-02-14T09:16:06.910Z,21.17
2019-02-14T09:18:37.187Z,19.50
2019-02-14T09:21:09.587Z,28.80
2019-02-14T09:23:39.711Z,23.38
2019-02-14T09:26:10.051Z,21.65
2019-02-14T09:28:40.631Z,22.07
2019-02-14T09:31:10.790Z,17.25
2019-02-14T09:33:40.996Z,15.88
2019-02-14T09:36:11.127Z,15.68
2019-02-14T09:38:41.253Z,11.28
2019-02-14T09:41:11.499Z,10.72
2019-02-14T09:43:41.711Z,12.37
2019-02-14T09:46:11.930Z,11.73
2019-02-14T09:48:44.552Z,14.43
2019-02-14T09:51:14.720Z,13.05
2019-02-14T09:53:45.915Z,14.35
2019-02-14T09:56:16.092Z,11.85
2019-02-14T09:58:46.300Z,15.58
2019-02-14T10:01:16.646Z,11.08
2019-02-14T10:03:47.060Z,10.28
2019-02-14T10:06:17.311Z,10.18
2019-02-14T10:08:47.662Z,11.28
2019-02-14T10:11:18.076Z,9.68
2019-02-14T10:13:48.239Z,9.23
2019-02-14T10:16:18.398Z,9.55
2019-02-14T10:18:49.209Z,9.18
2019-02-14T10:21:19.383Z,6.20
2019-02-14T10:23:49.534Z,4.75
2019-02-14T10:26:19.759Z,4.78
2019-02-14T10:28:49.921Z,5.70
2019-02-14T10:31:20.283Z,6.25
2019-02-14T10:33:50.438Z,8.20
2019-02-14T10:36:20.570Z,7.28
2019-02-14T10:38:53.231Z,10.28
2019-02-14T10:41:24.854Z,10.38
2019-02-14T10:43:55.005Z,17.27
2019-02-14T10:46:25.102Z,8.75
2019-02-14T10:48:55.290Z,5.97
2019-02-14T10:51:25.444Z,5.60
2019-02-14T10:53:55.849Z,8.38
2019-02-14T10:56:26.000Z,6.05
2019-02-14T10:58:59.131Z,9.33
2019-02-14T11:01:29.459Z,6.80
2019-02-14T11:03:59.563Z,8.05
2019-02-14T11:06:29.785Z,6.12
2019-02-14T11:08:59.882Z,5.70
2019-02-14T11:11:31.454Z,9.18
2019-02-14T11:14:03.001Z,8.25
2019-02-14T11:16:33.112Z,10.28
2019-02-14T11:19:03.216Z,6.42
2019-02-14T11:21:33.331Z,5.53
2019-02-14T11:24:03.900Z,6.58
2019-02-14T11:26:34.035Z,4.55
2019-02-14T11:29:04.592Z,5.78
2019-02-14T11:31:34.857Z,4.75
2019-02-14T11:34:04.978Z,6.67
2019-02-14T11:36:35.315Z,5.37
2019-02-14T11:39:09.757Z,5.58
2019-02-14T11:41:39.886Z,6.15
2019-02-14T11:44:10.015Z,7.40
2019-02-14T11:46:50.917Z,5.10
2019-02-14T11:49:13.502Z,6.35
2019-02-14T11:51:43.641Z,3.58
2019-02-14T11:54:14.881Z,4.47
2019-02-14T11:56:45.029Z,4.92
2019-02-14T11:59:15.171Z,5.22
2019-02-14T12:01:45.284Z,4.35
2019-02-14T12:04:15.438Z,5.40
2019-02-14T12:06:45.896Z,5.65
2019-02-14T12:09:16.187Z,3.85
2019-02-14T12:11:46.359Z,4.53
2019-02-14T12:14:16.631Z,4.22
2019-02-14T12:16:47.991Z,5.15
2019-02-14T12:19:18.566Z,4.05
2019-02-14T12:21:48.769Z,4.37
2019-02-14T12:24:18.936Z,6.42
2019-02-14T12:26:49.231Z,9.85
2019-02-14T12:29:19.364Z,6.25
2019-02-14T12:31:49.503Z,7.22
2019-02-14T12:34:21.672Z,6.20
2019-02-14T12:36:51.786Z,5.80
2019-02-14T12:39:21.947Z,5.60
2019-02-14T12:41:52.060Z,11.08
2019-02-14T12:44:22.220Z,5.65
2019-02-14T12:46:52.396Z,4.20
2019-02-14T12:49:22.533Z,5.12
2019-02-14T12:51:52.682Z,3.80
2019-02-14T12:54:22.827Z,4.12
2019-02-14T12:56:52.978Z,4.92
2019-02-14T12:59:23.063Z,5.58
2019-02-14T13:01:53.191Z,3.40
2019-02-14T13:04:23.292Z,3.65
2019-02-14T13:06:53.549Z,3.95
2019-02-14T13:09:23.662Z,4.25
2019-02-14T13:11:53.774Z,3.22
2019-02-14T13:14:23.925Z,6.78
2019-02-14T13:16:54.126Z,4.10
2019-02-14T13:19:24.210Z,6.45
2019-02-14T13:21:54.337Z,3.45
2019-02-14T13:24:24.438Z,3.75
2019-02-14T13:26:55.332Z,3.55
2019-02-14T13:29:25.782Z,5.60
2019-02-14T13:31:55.981Z,3.90
2019-02-14T13:34:27.207Z,4.28
2019-02-14T13:37:01.602Z,7.33
2019-02-14T13:39:30.943Z,4.42
2019-02-14T13:42:01.050Z,5.60
2019-02-14T13:44:31.300Z,6.03
2019-02-14T13:47:01.438Z,5.05
2019-02-14T13:49:32.808Z,3.17
2019-02-14T13:52:03.213Z,2.60
2019-02-14T13:54:34.544Z,4.42
2019-02-14T13:57:04.743Z,1.50
2019-02-14T13:59:34.831Z,3.35
2019-02-14T14:02:06.421Z,2.80
2019-02-14T14:04:36.752Z,3.25
2019-02-14T14:07:06.863Z,2.75
2019-02-14T14:09:38.981Z,2.10
2019-02-14T14:12:09.102Z,5.70
2019-02-14T14:14:39.300Z,4.20
2019-02-14T14:17:09.450Z,2.35
2019-02-14T14:19:39.553Z,2.50
2019-02-14T14:22:10.218Z,3.92
2019-02-14T14:24:43.916Z,3.08
2019-02-14T14:27:14.060Z,3.85
2019-02-14T14:29:44.274Z,3.30
2019-02-14T14:32:15.158Z,2.42
2019-02-14T14:34:46.943Z,3.65
2019-02-14T14:37:20.606Z,3.50
2019-02-14T14:39:51.075Z,2.80
2019-02-14T14:42:46.147Z,4.60
2019-02-14T14:45:21.029Z,5.03
2019-02-14T14:47:51.507Z,3.00
2019-02-14T14:50:21.611Z,2.85
2019-02-14T14:52:51.770Z,3.52
2019-02-14T14:55:21.941Z,3.20
2019-02-14T14:57:52.097Z,4.42
2019-02-14T15:00:22.237Z,7.03
2019-02-14T15:02:52.379Z,3.98
2019-02-14T15:05:22.477Z,4.87
2019-02-14T15:07:52.612Z,5.35
2019-02-14T15:10:22.699Z,4.87
2019-02-14T15:12:52.821Z,9.33
2019-02-14T15:15:25.166Z,5.15
2019-02-14T15:17:55.277Z,7.47
2019-02-14T15:20:25.416Z,7.25
2019-02-14T15:22:56.421Z,7.17
2019-02-14T15:25:27.503Z,6.47
2019-02-14T15:27:57.636Z,8.98
2019-02-14T15:30:29.176Z,6.72
2019-02-14T15:32:59.286Z,7.08
2019-02-14T15:35:31.005Z,4.83
2019-02-14T15:38:01.130Z,5.40
2019-02-14T15:40:31.335Z,4.35
2019-02-14T15:43:01.494Z,5.05
2019-02-14T15:45:33.193Z,6.40
2019-02-14T15:48:03.312Z,5.62
2019-02-14T15:50:33.431Z,3.40
2019-02-14T15:53:07.650Z,3.15
2019-02-14T15:55:38.998Z,3.98
2019-02-14T15:58:10.345Z,2.20
2019-02-14T16:00:40.602Z,2.58
2019-02-14T16:03:10.703Z,3.98
2019-02-14T16:05:42.612Z,2.65
2019-02-14T16:08:12.629Z,2.95
2019-02-14T16:10:42.764Z,2.95
2019-02-14T16:13:13.061Z,8.75
2019-02-14T16:15:43.259Z,8.63
2019-02-14T16:18:13.388Z,8.75
2019-02-14T16:20:44.292Z,8.00
2019-02-14T16:23:14.787Z,5.47
2019-02-14T16:25:44.984Z,11.48
2019-02-14T16:28:15.152Z,10.50
2019-02-14T16:30:45.276Z,5.30
2019-02-14T16:33:15.471Z,6.40
2019-02-14T16:35:45.593Z,12.98
2019-02-14T16:38:30.409Z,5.47
2019-02-14T16:41:00.518Z,6.90
2019-02-14T16:43:30.623Z,10.25
2019-02-14T16:46:01.840Z,5.95
2019-02-14T16:48:32.039Z,5.80
2019-02-14T16:51:02.158Z,7.95
2019-02-14T16:53:32.543Z,9.70
2019-02-14T16:56:03.179Z,4.95
2019-02-14T16:58:33.372Z,6.97
2019-02-14T17:01:03.484Z,3.83
2019-02-14T17:03:43.159Z,9.40
2019-02-14T17:06:18.073Z,4.58
2019-02-14T17:08:51.239Z,6.97
2019-02-14T17:11:42.063Z,5.75
2019-02-14T17:14:12.284Z,3.70
2019-02-14T17:16:47.028Z,5.75
2019-02-14T17:19:24.072Z,5.42
2019-02-14T17:22:16.379Z,5.25
2019-02-14T17:27:50.458Z,4.70
2019-02-14T17:30:37.936Z,5.62
2019-02-14T17:34:13.625Z,5.30
2019-02-14T17:36:45.490Z,5.22
2019-02-14T17:39:15.619Z,3.85
2019-02-14T17:41:45.804Z,2.92
2019-02-14T17:44:15.915Z,3.02
2019-02-14T17:46:46.074Z,3.33
2019-02-14T17:49:16.181Z,3.10
2019-02-14T17:51:49.145Z,7.67
2019-02-14T17:54:19.436Z,12.73
2019-02-14T17:56:49.560Z,15.88
2019-02-14T17:59:21.169Z,7.62
2019-02-14T18:01:55.513Z,5.20
2019-02-14T18:04:25.995Z,3.25
2019-02-14T18:06:56.251Z,4.92
2019-02-14T18:09:26.420Z,3.90
2019-02-14T18:11:57.389Z,3.70
2019-02-14T18:14:27.647Z,6.47
2019-02-14T18:17:01.534Z,6.60
2019-02-14T18:19:31.667Z,6.75
2019-02-14T18:25:06.969Z,3.60
2019-02-14T18:27:45.597Z,5.50
2019-02-14T18:30:24.650Z,3.15
2019-02-14T18:32:57.561Z,2.87
2019-02-14T18:35:27.671Z,2.47
2019-02-14T18:37:57.839Z,3.25
2019-02-14T18:40:27.989Z,3.10
2019-02-14T18:42:58.138Z,4.58
2019-02-14T18:45:28.267Z,6.97
2019-02-14T18:47:59.052Z,5.12
2019-02-14T18:50:29.267Z,6.12
2019-02-14T18:52:59.458Z,3.77
2019-02-14T18:55:30.719Z,3.10
2019-02-14T18:58:00.929Z,6.92
2019-02-14T19:00:31.881Z,8.35
2019-02-14T19:03:02.016Z,7.37
2019-02-14T19:05:32.200Z,5.12
2019-02-14T19:08:02.671Z,4.50
2019-02-14T19:10:32.879Z,3.90
2019-02-14T19:13:02.989Z,3.20
2019-02-14T19:15:33.176Z,4.87
2019-02-14T19:18:03.378Z,6.80
2019-02-14T19:20:35.752Z,10.20
2019-02-14T19:23:05.893Z,4.70
2019-02-14T19:25:36.135Z,7.05
2019-02-14T19:28:06.254Z,7.53
2019-02-14T19:30:38.672Z,3.85
2019-02-14T19:33:09.150Z,4.53
2019-02-14T19:35:41.318Z,3.55
2019-02-14T19:38:11.464Z,7.97
2019-02-14T19:40:41.745Z,6.28
2019-02-14T19:43:13.299Z,7.58
2019-02-14T19:45:45.468Z,8.28
2019-02-14T19:48:16.816Z,6.15
2019-02-14T19:50:49.450Z,6.85
2019-02-14T19:53:20.941Z,11.95
2019-02-14T19:55:51.194Z,4.95
2019-02-14T19:58:21.391Z,4.45
2019-02-14T20:00:52.782Z,4.90
2019-02-14T20:03:25.138Z,11.05
2019-02-14T20:05:55.504Z,7.62
2019-02-14T20:08:25.647Z,5.65
2019-02-14T20:10:55.881Z,7.95
2019-02-14T20:13:27.823Z,5.35
2019-02-14T20:15:57.913Z,8.53
2019-02-14T20:18:28.057Z,7.83
2019-02-14T20:20:58.275Z,8.90
2019-02-14T20:23:30.658Z,6.92
2019-02-14T20:26:01.529Z,7.67
2019-02-14T20:28:31.866Z,6.83
2019-02-14T20:31:03.244Z,5.45
2019-02-14T20:33:33.537Z,6.12
2019-02-14T20:36:03.810Z,6.67
2019-02-14T20:38:34.099Z,10.08
2019-02-14T20:41:04.354Z,7.42
2019-02-14T20:43:40.316Z,6.03
2019-02-14T20:46:12.067Z,7.22
2019-02-14T20:48:42.601Z,7.20
2019-02-14T20:51:13.341Z,8.63
2019-02-14T20:53:43.875Z,6.72
2019-02-14T20:56:14.375Z,15.75
2019-02-14T20:58:46.003Z,9.13
2019-02-14T21:01:16.397Z,6.30
2019-02-14T21:03:46.725Z,7.70
2019-02-14T21:06:18.166Z,7.53
2019-02-14T21:08:48.380Z,9.08
2019-02-14T21:11:18.562Z,11.55
2019-02-14T21:13:49.109Z,9.63
2019-02-14T21:16:19.297Z,9.23
2019-02-14T21:18:49.885Z,8.23
2019-02-14T21:21:22.847Z,10.78
2019-02-14T21:23:53.362Z,7.50
2019-02-14T21:26:23.750Z,18.85
2019-02-14T21:28:54.160Z,6.90
2019-02-14T21:31:24.478Z,9.80
2019-02-14T21:33:54.831Z,6.58
2019-02-14T21:36:25.044Z,6.95
2019-02-14T21:38:55.268Z,7.75
2019-02-14T21:41:25.459Z,11.03
2019-02-14T21:43:55.661Z,7.58
2019-02-14T21:46:25.872Z,7.83
2019-02-14T21:48:55.993Z,10.03
2019-02-14T21:51:26.218Z,8.15
2019-02-14T21:53:56.392Z,8.75
2019-02-14T21:56:26.731Z,9.15
2019-02-14T21:58:56.891Z,10.70
2019-02-14T22:01:27.788Z,11.45
2019-02-14T22:03:58.328Z,10.38
2019-02-14T22:06:28.791Z,10.23
2019-02-14T22:08:58.964Z,14.33
2019-02-14T22:11:33.855Z,9.70
2019-02-14T22:14:03.274Z,7.50
2019-02-14T22:16:36.617Z,14.00
2019-02-14T22:19:06.854Z,7.95
2019-02-14T22:21:38.203Z,10.55
2019-02-14T22:24:09.710Z,12.03
2019-02-14T22:26:39.910Z,16.62
2019-02-14T22:29:10.499Z,9.90
2019-02-14T22:31:41.283Z,11.40
2019-02-14T22:34:11.599Z,12.82
2019-02-14T22:36:41.791Z,23.98
2019-02-14T22:39:14.642Z,18.90
2019-02-14T22:41:46.051Z,23.70
2019-02-14T22:44:17.654Z,10.63
2019-02-14T22:46:48.143Z,14.93
2019-02-14T22:49:18.399Z,15.08
2019-02-14T22:51:48.658Z,14.05
2019-02-14T22:54:20.217Z,15.63
2019-02-14T22:56:50.349Z,13.03
2019-02-14T22:59:20.482Z,8.28
2019-02-14T23:01:52.711Z,11.60
2019-02-14T23:04:24.711Z,7.50
2019-02-14T23:06:54.887Z,9.98
2019-02-14T23:09:27.185Z,7.58
2019-02-14T23:11:57.467Z,8.08
2019-02-14T23:14:27.530Z,7.28
2019-02-14T23:16:57.527Z,8.10
2019-02-14T23:19:29.050Z,8.40
2019-02-14T23:21:59.080Z,10.20
2019-02-14T23:24:29.142Z,8.03
2019-02-14T23:26:59.081Z,9.35
2019-02-14T23:29:29.149Z,13.13
2019-02-14T23:32:02.089Z,11.95
2019-02-14T23:34:32.284Z,12.10
2019-02-14T23:37:02.229Z,14.23
2019-02-14T23:39:32.188Z,13.05
2019-02-14T23:42:02.136Z,12.05
2019-02-14T23:44:32.170Z,13.55
2019-02-14T23:47:02.258Z,13.85
2019-02-14T23:49:32.201Z,11.75
2019-02-14T23:52:02.149Z,12.50
2019-02-14T23:54:32.656Z,15.78
2019-02-14T23:57:03.156Z,13.18
2019-02-14T23:59:33.208Z,12.82
